sensor_id;sensor_type;location;lat;lon;timestamp;P1;durP1;ratioP1;P2;durP2;ratioP2
53245;SDS011;39569;51.090;-1.786;2023-07-16T00:01:55;18.42;;;6.88;;
53245;SDS011;39569;51.090;-1.786;2023-07-16T00:04:22;18.23;;;6.22;;
53245;SDS011;39569;51.090;-1.786;2023-07-16T00:06:49;11.55;;;5.82;;
53245;SDS011;39569;51.090;-1.786;2023-07-16T00:09:16;15.68;;;5.55;;
53245;SDS011;39569;51.090;-1.786;2023-07-16T00:11:43;32.83;;;6.45;;
53245;SDS011;39569;51.090;-1.786;2023-07-16T00:14:10;15.10;;;5.53;;
53245;SDS011;39569;51.090;-1.786;2023-07-16T00:16:37;13.13;;;6.57;;
53245;SDS011;39569;51.090;-1.786;2023-07-16T00:19:05;19.02;;;6.13;;
53245;SDS011;39569;51.090;-1.786;2023-07-16T00:21:32;16.00;;;6.05;;
53245;SDS011;39569;51.090;-1.786;2023-07-16T00:23:59;11.82;;;6.03;;
53245;SDS011;39569;51.090;-1.786;2023-07-16T00:26:25;14.25;;;6.32;;
53245;SDS011;39569;51.090;-1.786;2023-07-16T00:28:52;18.38;;;6.28;;
53245;SDS011;39569;51.090;-1.786;2023-07-16T00:31:19;15.82;;;5.70;;
53245;SDS011;39569;51.090;-1.786;2023-07-16T00:33:46;21.30;;;5.90;;
53245;SDS011;39569;51.090;-1.786;2023-07-16T00:36:14;11.43;;;5.38;;
53245;SDS011;39569;51.090;-1.786;2023-07-16T00:38:41;10.40;;;5.55;;
53245;SDS011;39569;51.090;-1.786;2023-07-16T00:41:07;24.08;;;7.95;;
53245;SDS011;39569;51.090;-1.786;2023-07-16T00:43:34;16.77;;;6.72;;
53245;SDS011;39569;51.090;-1.786;2023-07-16T00:46:01;17.38;;;5.75;;
53245;SDS011;39569;51.090;-1.786;2023-07-16T00:48:28;20.80;;;7.30;;
53245;SDS011;39569;51.090;-1.786;2023-07-16T00:50:55;18.85;;;6.15;;
53245;SDS011;39569;51.090;-1.786;2023-07-16T00:53:24;14.65;;;6.05;;
53245;SDS011;39569;51.090;-1.786;2023-07-16T00:55:51;19.38;;;7.97;;
53245;SDS011;39569;51.090;-1.786;2023-07-16T00:58:18;15.10;;;6.45;;
53245;SDS011;39569;51.090;-1.786;2023-07-16T01:00:44;16.65;;;7.90;;
53245;SDS011;39569;51.090;-1.786;2023-07-16T01:03:13;10.68;;;6.45;;
53245;SDS011;39569;51.090;-1.786;2023-07-16T01:05:42;17.92;;;6.75;;
53245;SDS011;39569;51.090;-1.786;2023-07-16T01:08:16;15.45;;;6.40;;
53245;SDS011;39569;51.090;-1.786;2023-07-16T01:10:49;17.30;;;7.22;;
53245;SDS011;39569;51.090;-1.786;2023-07-16T01:13:16;15.35;;;6.38;;
53245;SDS011;39569;51.090;-1.786;2023-07-16T01:15:43;9.77;;;5.28;;
53245;SDS011;39569;51.090;-1.786;2023-07-16T01:18:10;29.83;;;7.95;;
53245;SDS011;39569;51.090;-1.786;2023-07-16T01:20:37;22.65;;;8.15;;
53245;SDS011;39569;51.090;-1.786;2023-07-16T01:23:17;18.08;;;6.80;;
53245;SDS011;39569;51.090;-1.786;2023-07-16T01:26:11;16.65;;;6.55;;
53245;SDS011;39569;51.090;-1.786;2023-07-16T01:31:54;28.55;;;7.57;;
53245;SDS011;39569;51.090;-1.786;2023-07-16T01:34:22;13.30;;;6.13;;
53245;SDS011;39569;51.090;-1.786;2023-07-16T01:36:50;24.50;;;6.85;;
53245;SDS011;39569;51.090;-1.786;2023-07-16T01:39:17;19.52;;;7.50;;
53245;SDS011;39569;51.090;-1.786;2023-07-16T01:41:44;17.38;;;6.28;;
53245;SDS011;39569;51.090;-1.786;2023-07-16T01:44:11;18.88;;;6.53;;
53245;SDS011;39569;51.090;-1.786;2023-07-16T01:46:38;19.17;;;6.68;;
53245;SDS011;39569;51.090;-1.786;2023-07-16T01:49:06;34.10;;;8.05;;
53245;SDS011;39569;51.090;-1.786;2023-07-16T01:51:33;19.10;;;6.13;;
53245;SDS011;39569;51.090;-1.786;2023-07-16T01:53:59;14.48;;;7.88;;
53245;SDS011;39569;51.090;-1.786;2023-07-16T01:56:26;10.80;;;5.75;;
53245;SDS011;39569;51.090;-1.786;2023-07-16T01:58:55;14.30;;;6.22;;
53245;SDS011;39569;51.090;-1.786;2023-07-16T02:01:21;22.45;;;7.38;;
53245;SDS011;39569;51.090;-1.786;2023-07-16T02:03:48;25.63;;;6.05;;
53245;SDS011;39569;51.090;-1.786;2023-07-16T02:06:16;22.17;;;7.55;;
53245;SDS011;39569;51.090;-1.786;2023-07-16T02:08:43;23.17;;;6.63;;
53245;SDS011;39569;51.090;-1.786;2023-07-16T02:11:09;17.58;;;6.30;;
53245;SDS011;39569;51.090;-1.786;2023-07-16T02:13:36;20.73;;;6.45;;
53245;SDS011;39569;51.090;-1.786;2023-07-16T02:16:03;22.65;;;6.15;;
53245;SDS011;39569;51.090;-1.786;2023-07-16T02:18:30;21.85;;;7.25;;
53245;SDS011;39569;51.090;-1.786;2023-07-16T02:20:57;29.38;;;7.78;;
53245;SDS011;39569;51.090;-1.786;2023-07-16T02:23:25;24.08;;;5.78;;
53245;SDS011;39569;51.090;-1.786;2023-07-16T02:25:52;23.65;;;7.13;;
53245;SDS011;39569;51.090;-1.786;2023-07-16T02:28:19;14.70;;;5.88;;
53245;SDS011;39569;51.090;-1.786;2023-07-16T02:30:46;20.75;;;6.70;;
53245;SDS011;39569;51.090;-1.786;2023-07-16T02:33:12;18.27;;;6.38;;
53245;SDS011;39569;51.090;-1.786;2023-07-16T02:35:39;23.67;;;6.18;;
53245;SDS011;39569;51.090;-1.786;2023-07-16T02:38:06;21.13;;;6.05;;
53245;SDS011;39569;51.090;-1.786;2023-07-16T02:40:34;16.77;;;5.70;;
53245;SDS011;39569;51.090;-1.786;2023-07-16T02:43:00;17.20;;;6.35;;
53245;SDS011;39569;51.090;-1.786;2023-07-16T02:45:27;12.93;;;5.55;;
53245;SDS011;39569;51.090;-1.786;2023-07-16T02:47:54;14.95;;;6.72;;
53245;SDS011;39569;51.090;-1.786;2023-07-16T02:50:21;25.88;;;7.45;;
53245;SDS011;39569;51.090;-1.786;2023-07-16T02:52:47;17.35;;;5.32;;
53245;SDS011;39569;51.090;-1.786;2023-07-16T02:55:14;20.58;;;6.07;;
53245;SDS011;39569;51.090;-1.786;2023-07-16T02:57:42;24.45;;;7.35;;
53245;SDS011;39569;51.090;-1.786;2023-07-16T03:00:09;22.05;;;6.85;;
53245;SDS011;39569;51.090;-1.786;2023-07-16T03:02:36;15.85;;;5.57;;
53245;SDS011;39569;51.090;-1.786;2023-07-16T03:05:03;12.02;;;5.13;;
53245;SDS011;39569;51.090;-1.786;2023-07-16T03:07:30;25.50;;;6.60;;
53245;SDS011;39569;51.090;-1.786;2023-07-16T03:09:57;18.65;;;6.38;;
53245;SDS011;39569;51.090;-1.786;2023-07-16T03:12:24;18.23;;;5.32;;
53245;SDS011;39569;51.090;-1.786;2023-07-16T03:14:52;26.83;;;7.05;;
53245;SDS011;39569;51.090;-1.786;2023-07-16T03:17:19;21.60;;;6.38;;
53245;SDS011;39569;51.090;-1.786;2023-07-16T03:19:47;17.63;;;6.43;;
53245;SDS011;39569;51.090;-1.786;2023-07-16T03:22:13;14.48;;;5.75;;
53245;SDS011;39569;51.090;-1.786;2023-07-16T03:24:40;15.48;;;4.88;;
53245;SDS011;39569;51.090;-1.786;2023-07-16T03:27:07;20.75;;;6.38;;
53245;SDS011;39569;51.090;-1.786;2023-07-16T03:29:34;21.35;;;5.28;;
53245;SDS011;39569;51.090;-1.786;2023-07-16T03:32:02;15.35;;;4.95;;
53245;SDS011;39569;51.090;-1.786;2023-07-16T03:34:29;17.73;;;6.07;;
53245;SDS011;39569;51.090;-1.786;2023-07-16T03:36:56;19.50;;;5.60;;
53245;SDS011;39569;51.090;-1.786;2023-07-16T03:39:23;17.77;;;6.15;;
53245;SDS011;39569;51.090;-1.786;2023-07-16T03:41:49;18.65;;;5.78;;
53245;SDS011;39569;51.090;-1.786;2023-07-16T03:44:16;10.27;;;5.03;;
53245;SDS011;39569;51.090;-1.786;2023-07-16T03:46:43;10.15;;;5.13;;
53245;SDS011;39569;51.090;-1.786;2023-07-16T03:49:11;20.73;;;6.47;;
53245;SDS011;39569;51.090;-1.786;2023-07-16T03:51:38;15.40;;;5.38;;
53245;SDS011;39569;51.090;-1.786;2023-07-16T03:54:05;17.48;;;6.00;;
53245;SDS011;39569;51.090;-1.786;2023-07-16T03:56:31;12.40;;;5.20;;
53245;SDS011;39569;51.090;-1.786;2023-07-16T03:58:58;20.35;;;6.72;;
53245;SDS011;39569;51.090;-1.786;2023-07-16T04:01:25;24.80;;;6.18;;
53245;SDS011;39569;51.090;-1.786;2023-07-16T04:03:52;10.68;;;5.10;;
53245;SDS011;39569;51.090;-1.786;2023-07-16T04:06:20;16.88;;;6.53;;
53245;SDS011;39569;51.090;-1.786;2023-07-16T04:08:46;9.40;;;4.72;;
53245;SDS011;39569;51.090;-1.786;2023-07-16T04:11:13;18.63;;;6.93;;
53245;SDS011;39569;51.090;-1.786;2023-07-16T04:13:40;13.20;;;5.05;;
53245;SDS011;39569;51.090;-1.786;2023-07-16T04:16:07;14.82;;;6.03;;
53245;SDS011;39569;51.090;-1.786;2023-07-16T04:18:33;19.42;;;5.82;;
53245;SDS011;39569;51.090;-1.786;2023-07-16T04:21:00;12.80;;;5.32;;
53245;SDS011;39569;51.090;-1.786;2023-07-16T04:23:28;26.95;;;5.88;;
53245;SDS011;39569;51.090;-1.786;2023-07-16T04:25:55;9.45;;;4.75;;
53245;SDS011;39569;51.090;-1.786;2023-07-16T04:28:22;20.40;;;5.65;;
53245;SDS011;39569;51.090;-1.786;2023-07-16T04:30:48;14.23;;;5.95;;
53245;SDS011;39569;51.090;-1.786;2023-07-16T04:33:15;18.17;;;5.43;;
53245;SDS011;39569;51.090;-1.786;2023-07-16T04:35:44;21.27;;;5.55;;
53245;SDS011;39569;51.090;-1.786;2023-07-16T04:38:11;17.80;;;6.70;;
53245;SDS011;39569;51.090;-1.786;2023-07-16T04:40:39;12.10;;;5.57;;
53245;SDS011;39569;51.090;-1.786;2023-07-16T04:43:07;10.60;;;5.13;;
53245;SDS011;39569;51.090;-1.786;2023-07-16T04:45:34;17.20;;;5.57;;
53245;SDS011;39569;51.090;-1.786;2023-07-16T04:48:00;18.67;;;5.43;;
53245;SDS011;39569;51.090;-1.786;2023-07-16T04:50:27;23.33;;;6.15;;
53245;SDS011;39569;51.090;-1.786;2023-07-16T04:52:54;15.38;;;4.70;;
53245;SDS011;39569;51.090;-1.786;2023-07-16T04:55:20;18.02;;;6.25;;
53245;SDS011;39569;51.090;-1.786;2023-07-16T04:57:49;11.63;;;4.70;;
53245;SDS011;39569;51.090;-1.786;2023-07-16T05:00:18;17.05;;;6.03;;
53245;SDS011;39569;51.090;-1.786;2023-07-16T05:02:45;21.92;;;5.72;;
53245;SDS011;39569;51.090;-1.786;2023-07-16T05:05:12;16.42;;;5.55;;
53245;SDS011;39569;51.090;-1.786;2023-07-16T05:07:38;6.53;;;4.60;;
53245;SDS011;39569;51.090;-1.786;2023-07-16T05:10:05;17.13;;;5.68;;
53245;SDS011;39569;51.090;-1.786;2023-07-16T05:12:33;11.25;;;4.00;;
53245;SDS011;39569;51.090;-1.786;2023-07-16T05:15:01;12.82;;;5.65;;
53245;SDS011;39569;51.090;-1.786;2023-07-16T05:17:28;22.52;;;6.78;;
53245;SDS011;39569;51.090;-1.786;2023-07-16T05:19:55;13.18;;;5.53;;
53245;SDS011;39569;51.090;-1.786;2023-07-16T05:22:21;10.35;;;5.40;;
53245;SDS011;39569;51.090;-1.786;2023-07-16T05:24:48;14.32;;;5.53;;
53245;SDS011;39569;51.090;-1.786;2023-07-16T05:27:15;17.85;;;5.15;;
53245;SDS011;39569;51.090;-1.786;2023-07-16T05:29:42;11.98;;;4.30;;
53245;SDS011;39569;51.090;-1.786;2023-07-16T05:32:10;12.85;;;5.00;;
53245;SDS011;39569;51.090;-1.786;2023-07-16T05:34:36;15.98;;;6.80;;
53245;SDS011;39569;51.090;-1.786;2023-07-16T05:37:03;22.30;;;6.05;;
53245;SDS011;39569;51.090;-1.786;2023-07-16T05:39:31;19.50;;;5.20;;
53245;SDS011;39569;51.090;-1.786;2023-07-16T05:41:57;11.23;;;4.85;;
53245;SDS011;39569;51.090;-1.786;2023-07-16T05:44:27;11.88;;;4.68;;
53245;SDS011;39569;51.090;-1.786;2023-07-16T05:46:53;16.13;;;5.28;;
53245;SDS011;39569;51.090;-1.786;2023-07-16T05:49:22;13.85;;;5.22;;
53245;SDS011;39569;51.090;-1.786;2023-07-16T05:51:49;26.30;;;6.10;;
53245;SDS011;39569;51.090;-1.786;2023-07-16T05:54:16;12.38;;;4.93;;
53245;SDS011;39569;51.090;-1.786;2023-07-16T05:56:42;16.70;;;5.03;;
53245;SDS011;39569;51.090;-1.786;2023-07-16T05:59:09;17.10;;;4.82;;
53245;SDS011;39569;51.090;-1.786;2023-07-16T06:01:36;10.63;;;4.18;;
53245;SDS011;39569;51.090;-1.786;2023-07-16T06:04:03;12.85;;;5.55;;
53245;SDS011;39569;51.090;-1.786;2023-07-16T06:06:31;13.20;;;5.38;;
53245;SDS011;39569;51.090;-1.786;2023-07-16T06:08:58;11.30;;;5.07;;
53245;SDS011;39569;51.090;-1.786;2023-07-16T06:11:25;22.67;;;5.20;;
53245;SDS011;39569;51.090;-1.786;2023-07-16T06:13:53;12.48;;;4.90;;
53245;SDS011;39569;51.090;-1.786;2023-07-16T06:16:20;9.63;;;4.80;;
53245;SDS011;39569;51.090;-1.786;2023-07-16T06:18:47;18.85;;;5.18;;
53245;SDS011;39569;51.090;-1.786;2023-07-16T06:21:14;11.38;;;4.07;;
53245;SDS011;39569;51.090;-1.786;2023-07-16T06:23:42;16.52;;;4.75;;
53245;SDS011;39569;51.090;-1.786;2023-07-16T06:26:09;19.77;;;5.72;;
53245;SDS011;39569;51.090;-1.786;2023-07-16T06:28:36;19.15;;;5.70;;
53245;SDS011;39569;51.090;-1.786;2023-07-16T06:31:03;13.90;;;4.05;;
53245;SDS011;39569;51.090;-1.786;2023-07-16T06:33:30;12.10;;;4.85;;
53245;SDS011;39569;51.090;-1.786;2023-07-16T06:35:56;15.18;;;4.93;;
53245;SDS011;39569;51.090;-1.786;2023-07-16T06:38:23;15.27;;;3.97;;
53245;SDS011;39569;51.090;-1.786;2023-07-16T06:40:51;23.92;;;5.18;;
53245;SDS011;39569;51.090;-1.786;2023-07-16T06:43:18;13.20;;;4.88;;
53245;SDS011;39569;51.090;-1.786;2023-07-16T06:45:45;17.00;;;4.40;;
53245;SDS011;39569;51.090;-1.786;2023-07-16T06:48:12;12.07;;;4.30;;
53245;SDS011;39569;51.090;-1.786;2023-07-16T06:50:38;26.13;;;4.90;;
53245;SDS011;39569;51.090;-1.786;2023-07-16T06:53:05;10.73;;;4.68;;
53245;SDS011;39569;51.090;-1.786;2023-07-16T06:55:32;14.57;;;3.80;;
53245;SDS011;39569;51.090;-1.786;2023-07-16T06:58:00;9.30;;;4.00;;
53245;SDS011;39569;51.090;-1.786;2023-07-16T07:00:28;9.02;;;4.10;;
53245;SDS011;39569;51.090;-1.786;2023-07-16T07:02:55;5.85;;;3.10;;
53245;SDS011;39569;51.090;-1.786;2023-07-16T07:05:22;9.77;;;3.78;;
53245;SDS011;39569;51.090;-1.786;2023-07-16T07:07:49;12.48;;;4.38;;
53245;SDS011;39569;51.090;-1.786;2023-07-16T07:10:16;11.23;;;4.45;;
53245;SDS011;39569;51.090;-1.786;2023-07-16T07:12:42;9.43;;;3.13;;
53245;SDS011;39569;51.090;-1.786;2023-07-16T07:15:11;26.95;;;5.20;;
53245;SDS011;39569;51.090;-1.786;2023-07-16T07:17:39;11.50;;;4.03;;
53245;SDS011;39569;51.090;-1.786;2023-07-16T07:20:08;10.93;;;4.40;;
53245;SDS011;39569;51.090;-1.786;2023-07-16T07:22:35;10.20;;;3.28;;
53245;SDS011;39569;51.090;-1.786;2023-07-16T07:25:02;13.02;;;4.75;;
53245;SDS011;39569;51.090;-1.786;2023-07-16T07:27:29;21.05;;;5.10;;
53245;SDS011;39569;51.090;-1.786;2023-07-16T07:29:56;13.45;;;3.78;;
53245;SDS011;39569;51.090;-1.786;2023-07-16T07:32:24;16.50;;;4.18;;
53245;SDS011;39569;51.090;-1.786;2023-07-16T07:34:51;8.02;;;3.47;;
53245;SDS011;39569;51.090;-1.786;2023-07-16T07:37:18;11.90;;;3.85;;
53245;SDS011;39569;51.090;-1.786;2023-07-16T07:39:45;8.65;;;3.33;;
53245;SDS011;39569;51.090;-1.786;2023-07-16T07:42:13;16.48;;;4.10;;
53245;SDS011;39569;51.090;-1.786;2023-07-16T07:44:39;9.43;;;3.50;;
53245;SDS011;39569;51.090;-1.786;2023-07-16T07:47:06;21.13;;;4.57;;
53245;SDS011;39569;51.090;-1.786;2023-07-16T07:49:35;14.95;;;6.20;;
53245;SDS011;39569;51.090;-1.786;2023-07-16T07:52:01;9.25;;;3.22;;
53245;SDS011;39569;51.090;-1.786;2023-07-16T07:54:29;15.00;;;3.60;;
53245;SDS011;39569;51.090;-1.786;2023-07-16T07:57:00;10.88;;;4.07;;
53245;SDS011;39569;51.090;-1.786;2023-07-16T07:59:28;9.88;;;3.17;;
53245;SDS011;39569;51.090;-1.786;2023-07-16T08:01:55;12.35;;;3.00;;
53245;SDS011;39569;51.090;-1.786;2023-07-16T08:04:22;7.07;;;3.10;;
53245;SDS011;39569;51.090;-1.786;2023-07-16T08:06:50;15.77;;;3.78;;
53245;SDS011;39569;51.090;-1.786;2023-07-16T08:09:19;10.13;;;2.90;;
53245;SDS011;39569;51.090;-1.786;2023-07-16T08:11:46;8.90;;;3.88;;
53245;SDS011;39569;51.090;-1.786;2023-07-16T08:14:13;9.93;;;3.33;;
53245;SDS011;39569;51.090;-1.786;2023-07-16T08:16:39;18.65;;;4.95;;
53245;SDS011;39569;51.090;-1.786;2023-07-16T08:19:06;6.47;;;2.95;;
53245;SDS011;39569;51.090;-1.786;2023-07-16T08:21:33;7.43;;;2.65;;
53245;SDS011;39569;51.090;-1.786;2023-07-16T08:24:02;5.43;;;2.35;;
53245;SDS011;39569;51.090;-1.786;2023-07-16T08:26:30;6.28;;;2.58;;
53245;SDS011;39569;51.090;-1.786;2023-07-16T08:28:56;3.13;;;2.75;;
53245;SDS011;39569;51.090;-1.786;2023-07-16T08:31:24;4.15;;;2.50;;
53245;SDS011;39569;51.090;-1.786;2023-07-16T08:33:51;11.35;;;3.83;;
53245;SDS011;39569;51.090;-1.786;2023-07-16T08:36:18;7.00;;;2.92;;
53245;SDS011;39569;51.090;-1.786;2023-07-16T08:38:45;6.47;;;2.58;;
53245;SDS011;39569;51.090;-1.786;2023-07-16T08:41:13;6.97;;;3.13;;
53245;SDS011;39569;51.090;-1.786;2023-07-16T08:43:40;12.88;;;2.67;;
53245;SDS011;39569;51.090;-1.786;2023-07-16T08:46:09;6.47;;;3.00;;
53245;SDS011;39569;51.090;-1.786;2023-07-16T08:48:35;9.48;;;4.00;;
53245;SDS011;39569;51.090;-1.786;2023-07-16T08:51:02;5.50;;;2.53;;
53245;SDS011;39569;51.090;-1.786;2023-07-16T08:53:30;9.10;;;3.15;;
53245;SDS011;39569;51.090;-1.786;2023-07-16T08:55:57;6.53;;;3.15;;
53245;SDS011;39569;51.090;-1.786;2023-07-16T08:58:25;3.58;;;2.05;;
53245;SDS011;39569;51.090;-1.786;2023-07-16T09:00:52;10.30;;;3.45;;
53245;SDS011;39569;51.090;-1.786;2023-07-16T09:03:19;5.93;;;2.35;;
53245;SDS011;39569;51.090;-1.786;2023-07-16T09:05:45;10.98;;;3.15;;
53245;SDS011;39569;51.090;-1.786;2023-07-16T09:08:12;6.72;;;2.45;;
53245;SDS011;39569;51.090;-1.786;2023-07-16T09:10:40;10.23;;;2.47;;
53245;SDS011;39569;51.090;-1.786;2023-07-16T09:13:07;8.93;;;2.00;;
53245;SDS011;39569;51.090;-1.786;2023-07-16T09:15:36;6.88;;;2.65;;
53245;SDS011;39569;51.090;-1.786;2023-07-16T09:18:05;3.83;;;2.10;;
53245;SDS011;39569;51.090;-1.786;2023-07-16T09:20:32;4.35;;;1.95;;
53245;SDS011;39569;51.090;-1.786;2023-07-16T09:22:58;6.97;;;3.20;;
53245;SDS011;39569;51.090;-1.786;2023-07-16T09:25:26;16.10;;;2.55;;
53245;SDS011;39569;51.090;-1.786;2023-07-16T09:27:53;6.25;;;1.92;;
53245;SDS011;39569;51.090;-1.786;2023-07-16T09:30:20;2.95;;;1.63;;
53245;SDS011;39569;51.090;-1.786;2023-07-16T09:32:48;7.45;;;2.15;;
53245;SDS011;39569;51.090;-1.786;2023-07-16T09:35:15;4.63;;;2.05;;
53245;SDS011;39569;51.090;-1.786;2023-07-16T09:37:43;3.25;;;1.63;;
53245;SDS011;39569;51.090;-1.786;2023-07-16T09:40:11;3.17;;;1.77;;
53245;SDS011;39569;51.090;-1.786;2023-07-16T09:42:38;3.97;;;2.05;;
53245;SDS011;39569;51.090;-1.786;2023-07-16T09:45:06;4.32;;;1.90;;
53245;SDS011;39569;51.090;-1.786;2023-07-16T09:47:34;7.32;;;2.30;;
53245;SDS011;39569;51.090;-1.786;2023-07-16T09:50:02;4.65;;;2.05;;
53245;SDS011;39569;51.090;-1.786;2023-07-16T09:52:31;5.75;;;1.60;;
53245;SDS011;39569;51.090;-1.786;2023-07-16T09:55:00;7.97;;;3.03;;
53245;SDS011;39569;51.090;-1.786;2023-07-16T09:57:28;2.83;;;1.73;;
53245;SDS011;39569;51.090;-1.786;2023-07-16T09:59:58;5.03;;;1.98;;
53245;SDS011;39569;51.090;-1.786;2023-07-16T10:02:30;2.67;;;1.70;;
53245;SDS011;39569;51.090;-1.786;2023-07-16T10:04:59;5.45;;;2.50;;
53245;SDS011;39569;51.090;-1.786;2023-07-16T10:07:38;2.05;;;1.80;;
53245;SDS011;39569;51.090;-1.786;2023-07-16T10:10:07;3.70;;;1.95;;
53245;SDS011;39569;51.090;-1.786;2023-07-16T10:12:35;12.60;;;2.30;;
53245;SDS011;39569;51.090;-1.786;2023-07-16T10:15:04;2.58;;;1.58;;
53245;SDS011;39569;51.090;-1.786;2023-07-16T10:17:32;5.90;;;2.22;;
53245;SDS011;39569;51.090;-1.786;2023-07-16T10:20:00;5.90;;;1.58;;
53245;SDS011;39569;51.090;-1.786;2023-07-16T10:22:33;2.63;;;2.03;;
53245;SDS011;39569;51.090;-1.786;2023-07-16T10:25:03;6.07;;;2.22;;
53245;SDS011;39569;51.090;-1.786;2023-07-16T10:27:34;1.88;;;1.70;;
53245;SDS011;39569;51.090;-1.786;2023-07-16T10:30:01;7.50;;;2.42;;
53245;SDS011;39569;51.090;-1.786;2023-07-16T10:32:30;5.13;;;1.75;;
53245;SDS011;39569;51.090;-1.786;2023-07-16T10:34:58;6.63;;;1.48;;
53245;SDS011;39569;51.090;-1.786;2023-07-16T10:37:26;5.75;;;1.88;;
53245;SDS011;39569;51.090;-1.786;2023-07-16T10:39:54;6.80;;;1.67;;
53245;SDS011;39569;51.090;-1.786;2023-07-16T10:42:23;11.93;;;2.25;;
53245;SDS011;39569;51.090;-1.786;2023-07-16T10:44:51;5.35;;;2.03;;
53245;SDS011;39569;51.090;-1.786;2023-07-16T10:47:19;3.53;;;1.90;;
53245;SDS011;39569;51.090;-1.786;2023-07-16T10:49:48;6.70;;;2.53;;
53245;SDS011;39569;51.090;-1.786;2023-07-16T10:52:17;5.88;;;3.42;;
53245;SDS011;39569;51.090;-1.786;2023-07-16T10:54:44;9.80;;;2.97;;
53245;SDS011;39569;51.090;-1.786;2023-07-16T10:57:11;4.70;;;1.92;;
53245;SDS011;39569;51.090;-1.786;2023-07-16T10:59:39;4.57;;;2.30;;
53245;SDS011;39569;51.090;-1.786;2023-07-16T11:02:08;4.32;;;1.73;;
53245;SDS011;39569;51.090;-1.786;2023-07-16T11:04:37;3.95;;;2.38;;
53245;SDS011;39569;51.090;-1.786;2023-07-16T11:07:05;3.10;;;1.77;;
53245;SDS011;39569;51.090;-1.786;2023-07-16T11:09:33;4.97;;;2.67;;
53245;SDS011;39569;51.090;-1.786;2023-07-16T11:12:06;6.93;;;2.45;;
53245;SDS011;39569;51.090;-1.786;2023-07-16T11:14:34;6.72;;;2.50;;
53245;SDS011;39569;51.090;-1.786;2023-07-16T11:17:05;7.32;;;2.53;;
53245;SDS011;39569;51.090;-1.786;2023-07-16T11:19:34;3.83;;;2.38;;
53245;SDS011;39569;51.090;-1.786;2023-07-16T11:22:01;4.30;;;1.55;;
53245;SDS011;39569;51.090;-1.786;2023-07-16T11:24:29;5.05;;;3.65;;
53245;SDS011;39569;51.090;-1.786;2023-07-16T11:27:02;5.07;;;2.70;;
53245;SDS011;39569;51.090;-1.786;2023-07-16T11:29:33;6.35;;;3.20;;
53245;SDS011;39569;51.090;-1.786;2023-07-16T11:32:01;6.75;;;2.58;;
53245;SDS011;39569;51.090;-1.786;2023-07-16T11:34:29;9.75;;;3.28;;
53245;SDS011;39569;51.090;-1.786;2023-07-16T11:37:06;3.90;;;2.03;;
53245;SDS011;39569;51.090;-1.786;2023-07-16T11:39:33;8.80;;;2.60;;
53245;SDS011;39569;51.090;-1.786;2023-07-16T11:42:00;5.68;;;2.38;;
53245;SDS011;39569;51.090;-1.786;2023-07-16T11:44:31;6.18;;;2.13;;
53245;SDS011;39569;51.090;-1.786;2023-07-16T11:46:59;5.55;;;2.60;;
53245;SDS011;39569;51.090;-1.786;2023-07-16T11:49:26;4.10;;;2.03;;
53245;SDS011;39569;51.090;-1.786;2023-07-16T11:51:54;9.05;;;3.22;;
53245;SDS011;39569;51.090;-1.786;2023-07-16T11:54:20;15.00;;;5.00;;
53245;SDS011;39569;51.090;-1.786;2023-07-16T11:56:47;6.93;;;3.00;;
53245;SDS011;39569;51.090;-1.786;2023-07-16T11:59:15;9.75;;;2.30;;
53245;SDS011;39569;51.090;-1.786;2023-07-16T12:01:45;5.80;;;2.88;;
53245;SDS011;39569;51.090;-1.786;2023-07-16T12:04:12;10.80;;;3.28;;
53245;SDS011;39569;51.090;-1.786;2023-07-16T12:06:39;9.52;;;3.53;;
53245;SDS011;39569;51.090;-1.786;2023-07-16T12:09:07;4.90;;;3.10;;
53245;SDS011;39569;51.090;-1.786;2023-07-16T12:11:34;10.10;;;4.65;;
53245;SDS011;39569;51.090;-1.786;2023-07-16T12:14:03;6.88;;;3.00;;
53245;SDS011;39569;51.090;-1.786;2023-07-16T12:16:30;7.00;;;2.90;;
53245;SDS011;39569;51.090;-1.786;2023-07-16T12:18:57;7.00;;;2.45;;
53245;SDS011;39569;51.090;-1.786;2023-07-16T12:21:23;7.68;;;2.92;;
53245;SDS011;39569;51.090;-1.786;2023-07-16T12:23:50;4.43;;;2.72;;
53245;SDS011;39569;51.090;-1.786;2023-07-16T12:26:19;3.90;;;2.25;;
53245;SDS011;39569;51.090;-1.786;2023-07-16T12:28:45;5.93;;;2.38;;
53245;SDS011;39569;51.090;-1.786;2023-07-16T12:31:13;12.13;;;6.25;;
53245;SDS011;39569;51.090;-1.786;2023-07-16T12:33:41;10.95;;;5.57;;
53245;SDS011;39569;51.090;-1.786;2023-07-16T12:36:08;8.93;;;3.97;;
53245;SDS011;39569;51.090;-1.786;2023-07-16T12:38:35;20.05;;;10.02;;
53245;SDS011;39569;51.090;-1.786;2023-07-16T12:41:01;11.48;;;3.63;;
53245;SDS011;39569;51.090;-1.786;2023-07-16T12:43:30;3.00;;;1.83;;
53245;SDS011;39569;51.090;-1.786;2023-07-16T12:45:59;11.77;;;3.67;;
53245;SDS011;39569;51.090;-1.786;2023-07-16T12:48:26;6.85;;;2.72;;
53245;SDS011;39569;51.090;-1.786;2023-07-16T12:50:52;5.22;;;2.60;;
53245;SDS011;39569;51.090;-1.786;2023-07-16T12:53:19;7.22;;;2.83;;
53245;SDS011;39569;51.090;-1.786;2023-07-16T12:55:46;10.93;;;2.33;;
53245;SDS011;39569;51.090;-1.786;2023-07-16T12:58:13;4.18;;;2.30;;
53245;SDS011;39569;51.090;-1.786;2023-07-16T13:00:41;5.80;;;2.58;;
53245;SDS011;39569;51.090;-1.786;2023-07-16T13:03:08;5.95;;;3.22;;
53245;SDS011;39569;51.090;-1.786;2023-07-16T13:05:36;7.03;;;2.95;;
53245;SDS011;39569;51.090;-1.786;2023-07-16T13:08:03;7.32;;;3.47;;
53245;SDS011;39569;51.090;-1.786;2023-07-16T13:10:30;7.95;;;2.65;;
53245;SDS011;39569;51.090;-1.786;2023-07-16T13:12:57;5.35;;;1.73;;
53245;SDS011;39569;51.090;-1.786;2023-07-16T13:15:24;6.53;;;2.88;;
53245;SDS011;39569;51.090;-1.786;2023-07-16T13:17:52;6.07;;;2.78;;
53245;SDS011;39569;51.090;-1.786;2023-07-16T13:20:21;14.27;;;2.88;;
53245;SDS011;39569;51.090;-1.786;2023-07-16T13:22:48;4.80;;;2.58;;
53245;SDS011;39569;51.090;-1.786;2023-07-16T13:25:15;6.43;;;3.00;;
53245;SDS011;39569;51.090;-1.786;2023-07-16T13:27:42;8.20;;;3.63;;
53245;SDS011;39569;51.090;-1.786;2023-07-16T13:30:09;12.85;;;3.78;;
53245;SDS011;39569;51.090;-1.786;2023-07-16T13:32:36;5.30;;;2.67;;
53245;SDS011;39569;51.090;-1.786;2023-07-16T13:35:05;3.15;;;2.63;;
53245;SDS011;39569;51.090;-1.786;2023-07-16T13:37:32;8.48;;;6.93;;
53245;SDS011;39569;51.090;-1.786;2023-07-16T13:39:59;5.78;;;2.25;;
53245;SDS011;39569;51.090;-1.786;2023-07-16T13:42:26;7.45;;;4.05;;
53245;SDS011;39569;51.090;-1.786;2023-07-16T13:44:53;4.10;;;2.67;;
53245;SDS011;39569;51.090;-1.786;2023-07-16T13:47:19;7.95;;;3.38;;
53245;SDS011;39569;51.090;-1.786;2023-07-16T13:49:47;5.93;;;3.30;;
53245;SDS011;39569;51.090;-1.786;2023-07-16T13:52:15;5.47;;;4.47;;
53245;SDS011;39569;51.090;-1.786;2023-07-16T13:54:42;3.92;;;2.72;;
53245;SDS011;39569;51.090;-1.786;2023-07-16T13:57:08;10.13;;;4.25;;
53245;SDS011;39569;51.090;-1.786;2023-07-16T13:59:35;5.82;;;3.13;;
53245;SDS011;39569;51.090;-1.786;2023-07-16T14:02:02;8.52;;;3.75;;
53245;SDS011;39569;51.090;-1.786;2023-07-16T14:04:30;9.43;;;3.75;;
53245;SDS011;39569;51.090;-1.786;2023-07-16T14:06:56;3.83;;;2.65;;
53245;SDS011;39569;51.090;-1.786;2023-07-16T14:09:24;13.55;;;4.65;;
53245;SDS011;39569;51.090;-1.786;2023-07-16T14:11:51;4.38;;;2.20;;
53245;SDS011;39569;51.090;-1.786;2023-07-16T14:14:18;13.10;;;3.35;;
53245;SDS011;39569;51.090;-1.786;2023-07-16T14:16:45;12.25;;;3.53;;
53245;SDS011;39569;51.090;-1.786;2023-07-16T14:19:11;9.18;;;3.65;;
53245;SDS011;39569;51.090;-1.786;2023-07-16T14:21:38;6.88;;;3.88;;
53245;SDS011;39569;51.090;-1.786;2023-07-16T14:24:06;10.00;;;3.75;;
53245;SDS011;39569;51.090;-1.786;2023-07-16T14:26:34;7.22;;;3.03;;
53245;SDS011;39569;51.090;-1.786;2023-07-16T14:29:01;2.25;;;1.98;;
53245;SDS011;39569;51.090;-1.786;2023-07-16T14:31:27;4.53;;;3.13;;